createdAt,value
2018-03-26T00:01:40.290Z,19.93
2018-03-26T00:04:07.122Z,19.70
2018-03-26T00:06:33.930Z,22.60
2018-03-26T00:09:00.774Z,22.30
2018-03-26T00:11:27.554Z,22.43
2018-03-26T00:13:54.362Z,21.93
2018-03-26T00:16:21.627Z,22.07
2018-03-26T00:18:48.474Z,21.93
2018-03-26T00:21:15.350Z,22.73
2018-03-26T00:23:42.160Z,25.13
2018-03-26T00:26:09.402Z,23.17
2018-03-26T00:28:36.241Z,24.83
2018-03-26T00:31:03.097Z,24.77
2018-03-26T00:33:30.278Z,24.43
2018-03-26T00:35:57.712Z,25.10
2018-03-26T00:38:24.516Z,23.03
2018-03-26T00:40:51.797Z,23.63
2018-03-26T00:43:19.417Z,22.97
2018-03-26T00:45:46.266Z,22.83
2018-03-26T00:48:13.062Z,22.33
2018-03-26T00:50:39.872Z,23.03
2018-03-26T00:53:07.543Z,23.10
2018-03-26T00:55:34.323Z,22.47
2018-03-26T00:58:02.759Z,22.43
2018-03-26T01:00:29.563Z,22.77
2018-03-26T01:02:57.050Z,23.30
2018-03-26T01:05:24.550Z,23.23
2018-03-26T01:07:53.076Z,22.57
2018-03-26T01:10:22.422Z,23.40
2018-03-26T01:12:50.278Z,24.13
2018-03-26T01:15:17.153Z,22.43
2018-03-26T01:17:43.955Z,23.43
2018-03-26T01:20:10.773Z,24.20
2018-03-26T01:22:37.579Z,22.90
2018-03-26T01:25:04.410Z,24.50
2018-03-26T01:27:31.951Z,21.67
2018-03-26T01:29:58.769Z,21.60
2018-03-26T01:32:26.609Z,21.17
2018-03-26T01:34:53.513Z,24.70
2018-03-26T01:37:20.680Z,24.00
2018-03-26T01:39:47.563Z,23.07
2018-03-26T01:42:14.407Z,22.53
2018-03-26T01:44:41.244Z,27.37
2018-03-26T01:47:08.672Z,21.77
2018-03-26T01:49:35.517Z,21.87
2018-03-26T01:52:02.366Z,24.47
2018-03-26T01:54:29.532Z,20.27
2018-03-26T01:56:56.359Z,21.30
2018-03-26T01:59:23.961Z,21.13
2018-03-26T02:01:50.821Z,20.37
2018-03-26T02:04:17.606Z,22.27
2018-03-26T02:06:44.495Z,30.57
2018-03-26T02:09:11.342Z,27.77
2018-03-26T02:11:38.181Z,22.90
2018-03-26T02:14:04.950Z,29.50
2018-03-26T02:16:32.557Z,22.90
2018-03-26T02:18:59.458Z,81.70
2018-03-26T02:21:26.638Z,39.17
2018-03-26T02:23:53.458Z,33.83
2018-03-26T02:26:21.364Z,62.90
2018-03-26T02:28:48.213Z,53.33
2018-03-26T02:31:15.800Z,25.27
2018-03-26T02:33:42.620Z,22.33
2018-03-26T02:36:10.149Z,21.33
2018-03-26T02:38:36.991Z,21.23
2018-03-26T02:41:03.861Z,22.20
2018-03-26T02:43:30.716Z,20.20
2018-03-26T02:45:58.186Z,20.03
2018-03-26T02:48:25.003Z,20.53
2018-03-26T02:50:52.140Z,21.90
2018-03-26T02:53:19.284Z,22.60
2018-03-26T02:55:46.270Z,22.07
2018-03-26T02:58:13.247Z,20.83
2018-03-26T03:00:40.618Z,21.30
2018-03-26T03:03:07.449Z,20.17
2018-03-26T03:05:34.594Z,19.13
2018-03-26T03:08:01.792Z,20.30
2018-03-26T03:10:29.365Z,22.13
2018-03-26T03:12:56.248Z,22.57
2018-03-26T03:15:24.009Z,21.43
2018-03-26T03:17:51.904Z,21.07
2018-03-26T03:20:18.762Z,20.53
2018-03-26T03:22:46.459Z,20.53
2018-03-26T03:25:13.273Z,21.60
2018-03-26T03:27:40.116Z,19.50
2018-03-26T03:30:06.940Z,20.47
2018-03-26T03:32:34.181Z,21.40
2018-03-26T03:35:01.068Z,20.87
2018-03-26T03:37:27.880Z,22.77
2018-03-26T03:39:55.515Z,22.43
2018-03-26T03:42:22.645Z,22.97
2018-03-26T03:44:50.252Z,22.17
2018-03-26T03:47:17.883Z,23.07
2018-03-26T03:49:45.393Z,21.30
2018-03-26T03:52:12.243Z,23.17
2018-03-26T03:54:39.085Z,21.60
2018-03-26T03:57:06.720Z,22.97
2018-03-26T03:59:33.520Z,22.20
2018-03-26T04:02:00.800Z,23.47
2018-03-26T04:04:27.661Z,20.73
2018-03-26T04:06:54.429Z,19.07
2018-03-26T04:09:21.235Z,20.70
2018-03-26T04:11:48.088Z,20.30
2018-03-26T04:14:15.264Z,19.57
2018-03-26T04:16:43.388Z,19.10
2018-03-26T04:19:11.263Z,20.10
2018-03-26T04:21:38.785Z,20.33
2018-03-26T04:24:08.990Z,21.10
2018-03-26T04:26:41.345Z,19.10
2018-03-26T04:29:08.176Z,18.70
2018-03-26T04:31:35.022Z,18.77
2018-03-26T04:34:01.949Z,18.83
2018-03-26T04:36:28.967Z,18.53
2018-03-26T04:38:55.893Z,19.20
2018-03-26T04:41:22.785Z,18.47
2018-03-26T04:43:50.262Z,18.43
2018-03-26T04:46:17.548Z,17.73
2018-03-26T04:48:44.468Z,18.10
2018-03-26T04:51:11.303Z,17.80
2018-03-26T04:53:38.849Z,18.30
2018-03-26T04:56:05.664Z,16.60
2018-03-26T04:58:32.459Z,17.23
2018-03-26T05:00:59.246Z,18.83
2018-03-26T05:03:26.844Z,16.50
2018-03-26T05:05:53.653Z,17.93
2018-03-26T05:08:20.528Z,20.17
2018-03-26T05:10:47.318Z,20.73
2018-03-26T05:13:14.103Z,19.67
2018-03-26T05:15:40.870Z,19.60
2018-03-26T05:18:07.712Z,17.37
2018-03-26T05:20:34.690Z,17.40
2018-03-26T05:23:01.688Z,18.93
2018-03-26T05:25:29.148Z,16.87
2018-03-26T05:27:56.035Z,17.83
2018-03-26T05:30:22.815Z,18.93
2018-03-26T05:32:49.653Z,18.30
2018-03-26T05:35:16.483Z,18.70
2018-03-26T05:37:43.397Z,20.47
2018-03-26T05:40:10.204Z,17.80
2018-03-26T05:42:37.069Z,19.90
2018-03-26T05:45:04.837Z,19.97
2018-03-26T05:47:31.713Z,19.50
2018-03-26T05:49:58.522Z,18.50
2018-03-26T05:52:30.838Z,19.33
2018-03-26T05:54:57.710Z,18.27
2018-03-26T05:57:24.649Z,30.47
2018-03-26T05:59:51.508Z,45.07
2018-03-26T06:02:18.946Z,22.13
2018-03-26T06:04:45.762Z,19.27
2018-03-26T06:07:12.703Z,20.70
2018-03-26T06:09:39.542Z,21.93
2018-03-26T06:12:06.344Z,19.90
2018-03-26T06:14:33.202Z,20.90
2018-03-26T06:17:06.002Z,22.80
2018-03-26T06:19:32.820Z,24.33
2018-03-26T06:21:59.669Z,19.83
2018-03-26T06:24:26.544Z,20.97
2018-03-26T06:26:53.999Z,18.67
2018-03-26T06:29:20.860Z,19.97
2018-03-26T06:31:47.844Z,21.77
2018-03-26T06:34:14.770Z,21.23
2018-03-26T06:39:29.432Z,21.47
2018-03-26T06:42:06.308Z,22.47
2018-03-26T06:44:33.131Z,21.93
2018-03-26T06:46:59.965Z,21.03
2018-03-26T06:49:26.785Z,23.13
2018-03-26T06:51:53.627Z,20.57
2018-03-26T06:54:37.576Z,21.07
2018-03-26T06:57:04.858Z,20.57
2018-03-26T06:59:32.596Z,20.50
2018-03-26T07:02:10.127Z,20.77
2018-03-26T07:04:36.977Z,21.10
2018-03-26T07:10:15.899Z,21.77
2018-03-26T07:12:42.766Z,21.77
2018-03-26T07:15:09.659Z,21.20
2018-03-26T07:17:37.274Z,21.73
2018-03-26T07:20:04.126Z,22.37
2018-03-26T07:22:31.492Z,21.77
2018-03-26T07:24:58.319Z,21.53
2018-03-26T07:27:25.191Z,21.10
2018-03-26T07:29:52.024Z,19.90
2018-03-26T07:32:19.410Z,21.50
2018-03-26T07:34:47.003Z,18.53
2018-03-26T07:37:13.804Z,19.63
2018-03-26T07:39:41.127Z,20.93
2018-03-26T07:42:07.947Z,19.63
2018-03-26T07:44:35.846Z,19.67
2018-03-26T07:47:03.331Z,18.63
2018-03-26T07:49:30.262Z,20.03
2018-03-26T07:51:57.542Z,20.37
2018-03-26T07:54:24.337Z,20.07
2018-03-26T07:56:51.151Z,21.83
2018-03-26T07:59:18.401Z,21.97
2018-03-26T08:01:46.008Z,22.93
2018-03-26T08:04:12.843Z,22.83
2018-03-26T08:06:39.710Z,22.20
2018-03-26T08:09:06.555Z,21.67
2018-03-26T08:11:33.443Z,22.50
2018-03-26T08:14:00.203Z,23.80
2018-03-26T08:16:28.865Z,24.87
2018-03-26T08:18:55.827Z,24.97
2018-03-26T08:21:22.637Z,24.77
2018-03-26T08:23:50.966Z,25.90
2018-03-26T08:26:17.755Z,24.07
2018-03-26T08:28:45.354Z,25.67
2018-03-26T08:31:12.185Z,23.57
2018-03-26T08:33:38.943Z,22.73
2018-03-26T08:36:05.751Z,24.70
2018-03-26T08:38:33.178Z,24.57
2018-03-26T08:41:00.838Z,25.03
2018-03-26T08:43:27.583Z,25.93
2018-03-26T08:45:54.401Z,24.13
2018-03-26T08:48:21.204Z,22.07
2018-03-26T08:50:48.351Z,23.10
2018-03-26T08:53:15.178Z,23.93
2018-03-26T08:55:43.024Z,24.20
2018-03-26T08:58:09.811Z,25.57
2018-03-26T09:00:36.625Z,24.90
2018-03-26T09:03:03.386Z,28.07
2018-03-26T09:05:30.851Z,26.33
2018-03-26T09:07:58.987Z,26.07
2018-03-26T09:10:26.051Z,25.53
2018-03-26T09:12:52.910Z,27.53
2018-03-26T09:15:19.670Z,26.57
2018-03-26T09:17:46.410Z,27.67
2018-03-26T09:20:13.162Z,26.63
2018-03-26T09:22:40.661Z,28.30
2018-03-26T09:25:07.474Z,27.30
2018-03-26T09:27:34.271Z,26.67
2018-03-26T09:30:01.074Z,26.90
2018-03-26T09:32:28.024Z,26.77
2018-03-26T09:34:54.810Z,27.03
2018-03-26T09:37:22.052Z,25.33
2018-03-26T09:39:48.820Z,27.17
2018-03-26T09:42:21.090Z,26.10
2018-03-26T09:44:47.889Z,26.97
2018-03-26T09:47:14.723Z,27.13
2018-03-26T09:49:41.581Z,26.07
2018-03-26T09:52:08.380Z,25.80
2018-03-26T09:54:35.147Z,27.47
2018-03-26T09:57:02.342Z,27.33
2018-03-26T09:59:29.818Z,28.07
2018-03-26T10:01:57.588Z,32.43
2018-03-26T10:04:24.408Z,27.70
2018-03-26T10:06:51.341Z,29.10
2018-03-26T10:09:18.108Z,27.47
2018-03-26T10:11:44.893Z,30.07
2018-03-26T10:14:12.422Z,27.07
2018-03-26T10:16:39.233Z,29.13
2018-03-26T10:19:06.028Z,28.00
2018-03-26T10:21:32.820Z,29.60
2018-03-26T10:23:59.593Z,28.27
2018-03-26T10:26:26.449Z,26.30
2018-03-26T10:28:53.339Z,28.63
2018-03-26T10:31:20.096Z,26.97
2018-03-26T10:33:47.568Z,29.13
2018-03-26T10:36:14.318Z,28.37
2018-03-26T10:38:41.272Z,26.50
2018-03-26T10:41:08.379Z,27.87
2018-03-26T10:43:35.214Z,28.50
2018-03-26T10:46:02.026Z,26.73
2018-03-26T10:48:29.466Z,25.57
2018-03-26T10:50:56.655Z,28.10
2018-03-26T10:53:23.402Z,28.57
2018-03-26T10:55:50.259Z,28.07
2018-03-26T10:58:17.146Z,28.93
2018-03-26T11:00:51.115Z,27.33
2018-03-26T11:03:17.911Z,29.10
2018-03-26T11:05:44.810Z,27.70
2018-03-26T11:08:12.275Z,27.90
2018-03-26T11:10:39.061Z,30.77
2018-03-26T11:13:05.868Z,30.97
2018-03-26T11:15:32.805Z,28.77
2018-03-26T11:17:59.584Z,28.40
2018-03-26T11:20:28.043Z,28.10
2018-03-26T11:22:54.822Z,28.57
2018-03-26T11:25:21.634Z,30.10
2018-03-26T11:27:49.601Z,29.83
2018-03-26T11:30:16.439Z,30.43
2018-03-26T11:32:43.250Z,28.77
2018-03-26T11:35:10.006Z,30.50
2018-03-26T11:37:36.817Z,30.17
2018-03-26T11:40:03.616Z,32.73
2018-03-26T11:42:30.433Z,31.80
2018-03-26T11:44:57.265Z,33.27
2018-03-26T11:47:24.023Z,32.43
2018-03-26T11:49:50.905Z,30.17
2018-03-26T11:52:17.732Z,31.13
2018-03-26T11:54:44.552Z,31.00
2018-03-26T11:57:12.053Z,30.57
2018-03-26T11:59:38.851Z,31.97
2018-03-26T12:02:06.205Z,31.17
2018-03-26T12:04:33.055Z,32.53
2018-03-26T12:07:00.026Z,32.90
2018-03-26T12:09:26.844Z,33.80
2018-03-26T12:11:53.658Z,31.57
2018-03-26T12:14:20.437Z,32.00
2018-03-26T12:16:47.916Z,32.63
2018-03-26T12:19:15.394Z,32.00
2018-03-26T12:21:42.194Z,31.63
2018-03-26T12:24:14.988Z,29.13
2018-03-26T12:26:41.741Z,32.27
2018-03-26T12:29:14.495Z,33.70
2018-03-26T12:31:41.324Z,33.30
2018-03-26T12:34:14.242Z,33.73
2018-03-26T12:36:41.002Z,33.33
2018-03-26T12:39:07.984Z,33.03
2018-03-26T12:41:34.733Z,30.47
2018-03-26T12:44:01.487Z,32.57
2018-03-26T12:46:45.125Z,33.93
2018-03-26T12:49:11.893Z,32.53
2018-03-26T12:51:44.551Z,34.27
2018-03-26T12:54:11.328Z,35.07
2018-03-26T12:56:38.104Z,34.50
2018-03-26T12:59:05.007Z,34.57
2018-03-26T13:01:37.666Z,32.10
2018-03-26T13:04:05.177Z,33.07
2018-03-26T13:06:31.952Z,35.50
2018-03-26T13:08:58.707Z,35.47
2018-03-26T13:11:25.481Z,33.93
2018-03-26T13:13:52.238Z,34.73
2018-03-26T13:16:19.758Z,32.97
2018-03-26T13:18:47.092Z,34.03
2018-03-26T13:21:13.862Z,32.67
2018-03-26T13:23:40.618Z,33.07
2018-03-26T13:26:07.436Z,33.90
2018-03-26T13:28:34.203Z,33.27
2018-03-26T13:31:00.980Z,33.80
2018-03-26T13:33:27.744Z,34.10
2018-03-26T13:35:54.515Z,36.03
2018-03-26T13:38:31.246Z,33.07
2018-03-26T13:40:58.738Z,32.13
2018-03-26T13:43:25.526Z,33.93
2018-03-26T13:45:52.310Z,32.17
2018-03-26T13:48:19.086Z,35.87
2018-03-26T13:50:45.837Z,36.47
2018-03-26T13:53:12.640Z,35.70
2018-03-26T13:55:42.737Z,34.80
2018-03-26T13:58:09.541Z,37.10
2018-03-26T14:00:36.302Z,31.40
2018-03-26T14:03:03.102Z,33.97
2018-03-26T14:05:29.887Z,36.33
2018-03-26T14:07:56.776Z,33.23
2018-03-26T14:10:29.422Z,38.43
2018-03-26T14:13:02.134Z,36.03
2018-03-26T14:15:34.734Z,34.70
2018-03-26T14:18:01.546Z,34.87
2018-03-26T14:20:29.027Z,33.20
2018-03-26T14:22:55.951Z,35.93
2018-03-26T14:25:22.720Z,35.83
2018-03-26T14:27:49.515Z,37.03
2018-03-26T14:30:16.298Z,37.40
2018-03-26T14:32:43.090Z,37.47
2018-03-26T14:35:15.887Z,35.93
2018-03-26T14:37:42.658Z,34.20
2018-03-26T14:40:09.450Z,34.73
2018-03-26T14:42:36.193Z,36.33
2018-03-26T14:45:02.958Z,35.20
2018-03-26T14:47:29.722Z,36.70
2018-03-26T14:49:56.519Z,34.23
2018-03-26T14:52:23.312Z,41.13
2018-03-26T14:54:50.083Z,37.17
2018-03-26T14:57:16.861Z,37.87
2018-03-26T14:59:43.622Z,36.23
2018-03-26T15:02:10.418Z,37.97
2018-03-26T15:04:37.178Z,33.77
2018-03-26T15:07:11.131Z,34.60
2018-03-26T15:09:37.890Z,38.07
2018-03-26T15:12:04.651Z,34.90
2018-03-26T15:14:32.163Z,33.07
2018-03-26T15:16:58.962Z,35.30
2018-03-26T15:19:25.699Z,35.83
2018-03-26T15:21:53.180Z,35.67
2018-03-26T15:24:19.940Z,35.33
2018-03-26T15:26:46.736Z,39.23
2018-03-26T15:29:13.549Z,36.00
2018-03-26T15:31:40.314Z,35.40
2018-03-26T15:34:07.070Z,38.73
2018-03-26T15:36:33.848Z,37.00
2018-03-26T15:39:00.621Z,36.83
2018-03-26T15:41:27.441Z,36.57
2018-03-26T15:43:54.213Z,34.80
2018-03-26T15:46:21.037Z,36.37
2018-03-26T15:48:48.573Z,35.80
2018-03-26T15:51:15.469Z,37.17
2018-03-26T15:53:42.264Z,39.00
2018-03-26T15:56:09.109Z,37.90
2018-03-26T15:58:35.918Z,37.17
2018-03-26T16:01:03.370Z,36.80
2018-03-26T16:03:30.657Z,55.03
2018-03-26T16:05:57.487Z,49.60
2018-03-26T16:08:24.242Z,38.53
2018-03-26T16:10:51.010Z,58.70
2018-03-26T16:13:17.816Z,43.47
2018-03-26T16:15:44.651Z,58.57
2018-03-26T16:18:11.538Z,91.13
2018-03-26T16:20:38.482Z,53.37
2018-03-26T16:23:05.322Z,52.47
2018-03-26T16:25:32.778Z,44.20
2018-03-26T16:27:59.548Z,41.80
2018-03-26T16:30:26.350Z,39.93
2018-03-26T16:32:53.122Z,42.23
2018-03-26T16:35:19.919Z,36.63
2018-03-26T16:37:46.675Z,41.00
2018-03-26T16:40:13.489Z,39.70
2018-03-26T16:42:43.197Z,39.87
2018-03-26T16:45:10.933Z,42.23
2018-03-26T16:47:37.725Z,43.03
2018-03-26T16:50:10.850Z,42.77
2018-03-26T16:52:37.761Z,41.10
2018-03-26T16:55:12.338Z,36.33
2018-03-26T16:57:42.602Z,27.57
2018-03-26T17:00:09.388Z,38.23
2018-03-26T17:02:36.230Z,64.57
2018-03-26T17:05:03.212Z,44.03
2018-03-26T17:07:29.974Z,34.40
2018-03-26T17:09:57.138Z,35.87
2018-03-26T17:12:24.005Z,42.13
2018-03-26T17:14:51.017Z,34.50
2018-03-26T17:17:17.902Z,37.60
2018-03-26T17:19:44.706Z,47.87
2018-03-26T17:22:11.518Z,31.20
2018-03-26T17:24:38.350Z,33.43
2018-03-26T17:27:05.151Z,31.77
2018-03-26T17:29:32.249Z,35.07
2018-03-26T17:31:59.129Z,59.60
2018-03-26T17:34:25.959Z,66.73
2018-03-26T17:36:52.810Z,29.30
2018-03-26T17:39:19.646Z,28.70
2018-03-26T17:41:46.417Z,31.23
2018-03-26T17:44:13.211Z,32.07
2018-03-26T17:46:40.121Z,35.93
2018-03-26T17:49:07.151Z,35.10
2018-03-26T17:51:34.091Z,37.63
2018-03-26T17:54:11.077Z,33.13
2018-03-26T17:56:37.985Z,21.37
2018-03-26T17:59:05.172Z,27.37
2018-03-26T18:01:31.966Z,24.13
2018-03-26T18:03:58.806Z,24.73
2018-03-26T18:06:29.556Z,24.83
2018-03-26T18:08:57.156Z,23.90
2018-03-26T18:11:23.991Z,24.23
2018-03-26T18:13:50.976Z,25.13
2018-03-26T18:16:18.722Z,21.70
2018-03-26T18:18:46.999Z,22.60
2018-03-26T18:21:13.810Z,22.00
2018-03-26T18:23:41.680Z,22.37
2018-03-26T18:26:08.579Z,20.30
2018-03-26T18:28:36.182Z,24.87
2018-03-26T18:31:02.982Z,25.17
2018-03-26T18:33:30.628Z,31.53
2018-03-26T18:35:57.506Z,24.20
2018-03-26T18:38:24.350Z,25.07
2018-03-26T18:40:51.300Z,23.80
2018-03-26T18:43:33.585Z,23.33
2018-03-26T18:46:00.736Z,22.47
2018-03-26T18:48:27.562Z,22.67
2018-03-26T18:50:54.346Z,21.20
2018-03-26T18:53:21.243Z,22.17
2018-03-26T18:55:48.042Z,23.63
2018-03-26T18:58:14.965Z,22.23
2018-03-26T19:00:41.812Z,21.73
2018-03-26T19:05:53.192Z,22.37
2018-03-26T19:08:20.018Z,20.93
2018-03-26T19:10:46.915Z,21.00
2018-03-26T19:13:13.835Z,22.30
2018-03-26T19:15:40.653Z,22.80
2018-03-26T19:18:07.557Z,30.57
2018-03-26T19:20:34.385Z,25.53
2018-03-26T19:23:07.135Z,26.70
2018-03-26T19:45:03.930Z,23.40
2018-03-26T19:51:49.629Z,22.80
2018-03-26T19:54:18.006Z,22.73
2018-03-26T19:56:45.080Z,22.27
2018-03-26T19:59:13.083Z,25.17
2018-03-26T20:01:42.109Z,22.57
2018-03-26T20:04:08.887Z,24.67
2018-03-26T20:06:35.625Z,19.27
2018-03-26T20:09:02.674Z,24.80
2018-03-26T20:11:29.427Z,27.10
2018-03-26T20:13:56.190Z,25.03
2018-03-26T20:16:23.080Z,26.87
2018-03-26T20:18:49.979Z,26.10
2018-03-26T20:21:17.164Z,25.27
2018-03-26T20:23:43.954Z,24.13
2018-03-26T20:26:17.613Z,26.57
2018-03-26T20:28:44.424Z,26.27
2018-03-26T20:31:11.199Z,26.97
2018-03-26T20:33:38.050Z,24.13
2018-03-26T20:36:04.892Z,24.97
2018-03-26T20:38:31.719Z,22.27
2018-03-26T20:40:58.712Z,21.83
2018-03-26T20:43:25.510Z,25.37
2018-03-26T20:45:52.295Z,27.73
2018-03-26T20:48:19.150Z,23.47
2018-03-26T20:50:46.081Z,22.67
2018-03-26T20:53:12.875Z,23.10
2018-03-26T20:55:39.654Z,20.70
2018-03-26T20:58:06.496Z,23.13
2018-03-26T21:00:33.325Z,24.73
2018-03-26T21:03:01.021Z,22.70
2018-03-26T21:05:27.819Z,23.33
2018-03-26T21:07:54.801Z,25.90
2018-03-26T21:10:21.611Z,22.93
2018-03-26T21:12:48.415Z,20.87
2018-03-26T21:15:25.785Z,22.43
2018-03-26T21:17:52.564Z,22.53
2018-03-26T21:20:19.359Z,25.23
2018-03-26T21:22:46.753Z,19.53
2018-03-26T21:25:13.522Z,23.83
2018-03-26T21:27:40.325Z,26.27
2018-03-26T21:30:07.131Z,21.00
2018-03-26T21:32:33.898Z,25.47
2018-03-26T21:35:01.365Z,21.83
2018-03-26T21:37:28.186Z,25.07
2018-03-26T21:39:54.962Z,26.07
2018-03-26T21:42:21.737Z,23.37
2018-03-26T21:44:48.834Z,23.73
2018-03-26T21:47:15.612Z,21.40
2018-03-26T21:49:42.427Z,28.60
2018-03-26T21:52:09.193Z,32.40
2018-03-26T21:54:36.210Z,27.03
2018-03-26T21:57:03.044Z,21.63
2018-03-26T21:59:29.837Z,30.73
2018-03-26T22:01:56.638Z,29.90
2018-03-26T22:04:23.410Z,26.20
2018-03-26T22:06:50.846Z,29.47
2018-03-26T22:09:17.650Z,32.57
2018-03-26T22:11:44.445Z,33.17
2018-03-26T22:14:11.331Z,32.67
2018-03-26T22:16:38.158Z,29.30
2018-03-26T22:19:04.940Z,27.70
2018-03-26T22:21:31.773Z,24.77
2018-03-26T22:23:58.514Z,26.07
2018-03-26T22:26:25.420Z,30.10
2018-03-26T22:28:52.204Z,30.50
2018-03-26T22:31:19.035Z,25.13
2018-03-26T22:33:45.801Z,28.10
2018-03-26T22:36:12.730Z,25.27
2018-03-26T22:38:40.074Z,25.73
2018-03-26T22:41:06.962Z,24.83
2018-03-26T22:43:33.778Z,25.73
2018-03-26T22:46:00.908Z,21.90
2018-03-26T22:48:27.776Z,22.10
2018-03-26T22:50:54.582Z,22.53
2018-03-26T22:53:21.382Z,19.17
2018-03-26T22:55:48.175Z,20.67
2018-03-26T22:58:14.984Z,21.87
2018-03-26T23:00:41.785Z,20.63
2018-03-26T23:03:08.699Z,19.57
2018-03-26T23:05:35.608Z,19.27
2018-03-26T23:08:02.372Z,17.43
2018-03-26T23:10:29.153Z,14.47
2018-03-26T23:12:55.906Z,11.80
2018-03-26T23:15:22.670Z,14.43
2018-03-26T23:17:49.434Z,13.97
2018-03-26T23:20:16.303Z,13.03
2018-03-26T23:22:48.017Z,15.33
2018-03-26T23:25:14.782Z,14.13
2018-03-26T23:27:41.634Z,14.10
2018-03-26T23:30:08.418Z,11.37
2018-03-26T23:32:35.153Z,14.27
2018-03-26T23:35:02.704Z,12.37
2018-03-26T23:37:29.475Z,13.77
2018-03-26T23:39:56.278Z,13.13
2018-03-26T23:42:23.089Z,13.33
2018-03-26T23:44:49.862Z,13.47
2018-03-26T23:47:16.659Z,13.13
2018-03-26T23:49:43.563Z,12.80
2018-03-26T23:52:10.330Z,12.47
2018-03-26T23:54:37.089Z,13.33
2018-03-26T23:57:03.898Z,12.13
2018-03-26T23:59:30.666Z,13.53
